Time;durP1;ratioP1;P1;durP2;ratioP2;P2;SDS_P1;SDS_P2;PMS_P1;PMS_P2;Temp;Humidity;BMP_temperature;BMP_pressure;BME280_temperature;BME280_humidity;BME280_pressure;Samples;Min_cycle;Max_cycle;Signal;HPM_P1;HPM_P2
2022/01/03 05:40:07;;;;;;;;;;;;;;;;;;;;;
2022/01/03 11:52:12;;;;;;;;;;;;;;;;;;;;;
2022/01/03 11:55:47;;;;;;;24.40;3.38;;;9.40;99.90;;;;;;6231928;22;20015;-93
2022/01/03 12:03:50;;;;;;;30.42;3.53;;;9.50;99.90;;;;;;5900906;24;19926;-93
2022/01/03 12:15:41;;;;;;;34.63;4.63;;;9.50;99.90;;;;;;5900099;24;20025;-94
2022/01/03 12:19:57;;;;;;;25.83;3.83;;;9.50;99.90;;;;;;5900159;24;20144;-94
2022/01/03 12:23:53;;;;;;;29.60;4.15;;;9.50;99.90;;;;;;5820540;24;20049;-93
2022/01/03 13:02:01;;;;;;;;;;;;;;;;;;;;;
2022/01/03 13:06:04;;;;;;;22.30;3.40;;;9.70;99.90;;;;;;6101348;23;20101;-91
2022/01/03 14:29:45;;;;;;;28.52;4.60;;;9.70;99.90;;;;;;6268839;22;20031;-91
2022/01/03 16:28:36;;;;;;;10.80;2.88;;;8.90;99.90;;;;;;6286544;22;20030;-92
2022/01/03 16:31:06;;;;;;;17.33;3.50;;;8.90;99.90;;;;;;6246297;22;20403;-91
2022/01/03 16:38:12;;;;;;;14.70;2.95;;;8.90;99.90;;;;;;6255564;23;20082;-94
2022/01/03 17:21:08;;;;;;;;;;;;;;;;;;;;;
2022/01/03 17:32:52;;;;;;;22.52;2.35;;;8.70;99.90;;;;;;6243802;22;20027;-91
2022/01/03 17:48:20;;;;;;;19.23;3.33;;;8.70;99.90;;;;;;6278543;22;20018;-91
2022/01/03 17:54:21;;;;;;;25.27;3.28;;;8.70;99.90;;;;;;6220993;23;20008;-90
2022/01/03 18:04:41;;;;;;;;;;;;;;;;;;;;;
2022/01/03 18:08:39;;;;;;;22.83;2.42;;;8.60;99.90;;;;;;6178922;22;20031;-92
2022/01/03 18:27:56;;;;;;;24.05;2.15;;;8.60;99.90;;;;;;6010152;23;20103;-94
2022/01/03 18:31:29;;;;;;;17.52;2.85;;;8.60;99.90;;;;;;6023925;23;20444;-92
2022/01/03 18:35:02;;;;;;;11.95;1.73;;;8.60;99.90;;;;;;6065907;23;20037;-92
2022/01/03 18:38:40;;;;;;;18.58;2.47;;;8.60;99.90;;;;;;6111359;23;20089;-92
2022/01/03 18:41:36;;;;;;;11.77;2.45;;;8.50;99.90;;;;;;6111595;23;20025;-93
2022/01/03 18:44:25;;;;;;;22.65;3.35;;;8.50;99.90;;;;;;6134595;23;20021;-92
2022/01/03 18:47:35;;;;;;;15.48;3.17;;;8.50;99.90;;;;;;6165282;23;20014;-92
2022/01/03 18:50:51;;;;;;;21.75;4.93;;;8.50;99.90;;;;;;6022778;23;20079;-92
2022/01/03 19:07:06;;;;;;;21.05;2.97;;;8.50;99.90;;;;;;5966667;23;20031;-92
2022/01/03 19:14:11;;;;;;;11.82;2.40;;;8.50;99.90;;;;;;5959872;24;20020;-93
2022/01/03 19:17:31;;;;;;;20.15;2.13;;;8.50;99.90;;;;;;5914989;24;20020;-92
2022/01/03 19:20:56;;;;;;;17.80;2.10;;;8.40;99.90;;;;;;5956219;24;20095;-91
2022/01/03 19:27:50;;;;;;;20.20;3.30;;;8.50;99.90;;;;;;5988976;23;20023;-94
2022/01/03 19:30:48;;;;;;;12.00;2.22;;;8.50;99.90;;;;;;6073781;23;20364;-92
2022/01/03 19:42:52;;;;;;;17.52;4.35;;;8.40;99.90;;;;;;6252928;22;20035;-93
2022/01/03 19:46:05;;;;;;;15.80;2.88;;;8.40;99.90;;;;;;6203519;23;20020;-94
2022/01/03 20:05:44;;;;;;;25.20;2.90;;;8.40;99.90;;;;;;6255089;22;20027;-93
2022/01/03 20:30:19;;;;;;;16.15;2.70;;;8.40;99.90;;;;;;6277017;22;20031;-90
2022/01/03 20:33:07;;;;;;;25.25;2.80;;;8.40;99.90;;;;;;6229403;22;20031;-91
2022/01/03 21:14:13;;;;;;;11.68;2.67;;;8.40;99.90;;;;;;6257976;22;20031;-92
2022/01/03 21:26:35;;;;;;;27.20;2.20;;;8.30;99.90;;;;;;6003762;23;20077;-92
2022/01/03 21:29:43;;;;;;;31.00;2.90;;;8.30;99.90;;;;;;6136092;23;20112;-93
2022/01/03 21:32:40;;;;;;;21.98;2.65;;;8.30;99.90;;;;;;6133105;23;20084;-91
2022/01/03 21:35:25;;;;;;;16.02;2.60;;;8.30;99.90;;;;;;6107220;23;20056;-94
2022/01/03 21:44:11;;;;;;;12.68;2.92;;;8.30;99.90;;;;;;6208586;23;20021;-94
2022/01/03 21:46:54;;;;;;;18.98;2.47;;;8.30;99.90;;;;;;6213395;23;20302;-93
2022/01/03 21:49:37;;;;;;;14.50;2.38;;;8.30;99.90;;;;;;6215916;23;20040;-95
2022/01/03 21:52:31;;;;;;;;;;;;;;;;;;;;;
2022/01/03 21:55:32;;;;;;;15.25;4.03;;;8.30;99.90;;;;;;6217330;23;20079;-94
2022/01/03 21:58:11;;;;;;;27.88;2.45;;;8.30;99.90;;;;;;6178251;23;20012;-92
2022/01/03 22:01:00;;;;;;;22.10;5.07;;;8.30;99.90;;;;;;6217008;23;20019;-94
2022/01/03 22:03:44;;;;;;;8.98;2.33;;;8.30;99.90;;;;;;6193741;23;20067;-93
2022/01/03 22:06:25;;;;;;;20.00;3.13;;;8.30;99.90;;;;;;6192545;23;20013;-93
2022/01/03 22:09:09;;;;;;;14.60;1.88;;;8.30;99.90;;;;;;6192657;23;20021;-92
2022/01/03 22:11:54;;;;;;;13.00;3.75;;;8.20;99.90;;;;;;6195209;23;20459;-92
2022/01/03 22:14:22;;;;;;;13.82;1.75;;;8.20;99.90;;;;;;6215724;23;20016;-92
2022/01/03 22:16:49;;;;;;;19.15;2.28;;;8.20;99.90;;;;;;6216652;23;20029;-92
2022/01/03 22:19:19;;;;;;;13.07;2.53;;;8.20;99.90;;;;;;6215645;23;20024;-94
2022/01/03 22:21:49;;;;;;;23.58;2.65;;;8.30;99.90;;;;;;6190649;23;20020;-92
2022/01/03 22:24:20;;;;;;;32.78;4.18;;;8.20;99.90;;;;;;6216642;23;20031;-93
2022/01/03 22:26:53;;;;;;;23.88;2.75;;;8.20;99.90;;;;;;6215394;23;20027;-94
2022/01/03 22:29:22;;;;;;;13.15;2.53;;;8.20;99.90;;;;;;6190949;23;20067;-93
2022/01/03 22:31:54;;;;;;;14.35;1.67;;;8.20;99.90;;;;;;6191299;23;20024;-93
2022/01/03 22:34:24;;;;;;;30.73;3.30;;;8.20;99.90;;;;;;6215240;23;20021;-93
2022/01/03 22:36:53;;;;;;;18.40;3.00;;;8.20;99.90;;;;;;6191068;23;20029;-93
2022/01/03 22:39:23;;;;;;;29.88;3.25;;;8.20;99.90;;;;;;6215409;23;20020;-93
2022/01/03 22:41:53;;;;;;;20.15;2.95;;;8.20;99.90;;;;;;6191003;23;20027;-93
2022/01/03 22:44:21;;;;;;;10.35;2.05;;;8.20;99.90;;;;;;6215506;23;20107;-92
2022/01/03 22:46:53;;;;;;;25.48;3.47;;;8.20;99.90;;;;;;6201620;23;20035;-92
2022/01/03 22:49:24;;;;;;;14.80;2.42;;;8.20;99.90;;;;;;6189885;23;20017;-93
2022/01/03 22:51:55;;;;;;;16.15;3.30;;;8.20;99.90;;;;;;6191614;23;20078;-93
2022/01/03 22:54:27;;;;;;;12.75;2.33;;;8.20;99.90;;;;;;6215482;23;20013;-93
2022/01/03 22:56:56;;;;;;;18.33;2.88;;;8.20;99.90;;;;;;6215401;23;20025;-93
2022/01/03 22:59:32;;;;;;;17.00;2.47;;;8.20;99.90;;;;;;6190869;23;20025;-93
2022/01/03 23:02:02;;;;;;;19.70;2.30;;;8.20;99.90;;;;;;6198178;23;20012;-94
2022/01/03 23:04:38;;;;;;;24.65;2.92;;;8.20;99.90;;;;;;6194542;23;20021;-93
2022/01/03 23:07:07;;;;;;;18.05;2.42;;;8.20;99.90;;;;;;6215007;23;20013;-94
2022/01/03 23:09:39;;;;;;;12.95;2.95;;;8.20;99.90;;;;;;6215236;23;20116;-93
2022/01/03 23:12:12;;;;;;;28.77;2.45;;;8.20;99.90;;;;;;6214874;23;20020;-93
2022/01/03 23:14:45;;;;;;;9.70;2.40;;;8.20;99.90;;;;;;6218802;23;20009;-93
2022/01/03 23:17:24;;;;;;;19.25;2.53;;;8.20;99.90;;;;;;6190673;23;20021;-93
2022/01/03 23:19:53;;;;;;;23.20;3.40;;;8.20;99.90;;;;;;6215060;23;20051;-93
2022/01/03 23:22:22;;;;;;;20.05;2.85;;;8.20;99.90;;;;;;6225176;22;20013;-93
2022/01/03 23:24:54;;;;;;;19.48;2.60;;;8.20;99.90;;;;;;6214927;23;20043;-93
2022/01/03 23:27:30;;;;;;;26.70;3.10;;;8.20;99.90;;;;;;6191500;23;20067;-93
2022/01/03 23:30:00;;;;;;;20.95;2.10;;;8.20;99.90;;;;;;6214613;23;20026;-92
2022/01/03 23:32:36;;;;;;;20.50;3.33;;;8.20;99.90;;;;;;6190371;23;20017;-94
2022/01/03 23:35:07;;;;;;;20.83;2.90;;;8.20;99.90;;;;;;6215752;23;20027;-94
2022/01/03 23:37:37;;;;;;;17.30;2.50;;;8.20;99.90;;;;;;6215580;23;20028;-93
2022/01/03 23:40:10;;;;;;;13.75;2.85;;;8.20;99.90;;;;;;6191309;23;20059;-93
2022/01/03 23:42:37;;;;;;;8.90;1.65;;;8.20;99.90;;;;;;6190003;23;20031;-93
2022/01/03 23:45:05;;;;;;;22.90;3.38;;;8.20;99.90;;;;;;6214838;23;20099;-93
2022/01/03 23:47:36;;;;;;;19.85;2.40;;;8.20;99.90;;;;;;6214958;23;20100;-93
2022/01/03 23:50:07;;;;;;;15.55;2.30;;;8.20;99.90;;;;;;6216234;23;20016;-94
2022/01/03 23:52:43;;;;;;;13.88;2.15;;;8.20;99.90;;;;;;6215305;23;20091;-93
2022/01/03 23:55:12;;;;;;;16.17;2.33;;;8.20;99.90;;;;;;6215132;23;20039;-93
2022/01/03 23:57:43;;;;;;;15.38;2.95;;;8.20;99.90;;;;;;6189721;23;20017;-92
